Terminal Aerodrome Forecast
Issued by NWS Shreveport, LA

Home | Current Version | Previous Version | Text Only | Print | Product List | Glossary On
Versions: 1 2 3 4 5 6 7 8 9 10 11 12 13 14 15 16
000
FTUS44 KSHV 191700
TAFMLU
TAF
KMLU 191740Z 1918/2018 VRB03KT P6SM BKN035
     FM192000 09005KT P6SM SCT045
     FM200000 11004KT P6SM SKC
     FM200700 VRB03KT 5SM BR SKC
      TEMPO 2009/2012 2SM BR SKC=

USA.gov is the U.S. government's official web portal to all federal, state and local government web resources and services.